Time;durP1;ratioP1;P1;durP2;ratioP2;P2;SDS_P1;SDS_P2;PMS_P1;PMS_P2;Temp;Humidity;BMP_temperature;BMP_pressure;BME280_temperature;BME280_humidity;BME280_pressure;Samples;Min_cycle;Max_cycle;Signal;HPM_P1;HPM_P2
2022/09/27 00:01:01;;;;;;;3.65;2.67;;;13.80;98.70;;;;;;5026318;28;20029;-53
2022/09/27 00:03:47;;;;;;;3.67;2.50;;;13.70;98.90;;;;;;5021205;28;20027;-52
2022/09/27 00:06:33;;;;;;;4.57;2.60;;;13.60;99.20;;;;;;5024132;28;20045;-52
2022/09/27 00:09:19;;;;;;;3.42;2.63;;;13.50;99.70;;;;;;5027056;28;20041;-54
2022/09/27 00:19:30;;;;;;;5.53;3.10;;;13.50;99.90;;;;;;5022225;28;20021;-54
2022/09/27 00:22:16;;;;;;;3.97;2.83;;;13.50;99.90;;;;;;5023634;28;20108;-54
2022/09/27 00:25:06;;;;;;;3.35;2.63;;;13.50;99.90;;;;;;5016864;28;20521;-53
2022/09/27 00:27:52;;;;;;;5.45;2.90;;;13.60;99.70;;;;;;5012993;28;20022;-47
2022/09/27 00:30:41;;;;;;;5.40;3.60;;;13.50;99.70;;;;;;5013775;28;20061;-54
2022/09/27 00:33:27;;;;;;;4.60;3.33;;;13.50;99.90;;;;;;5012709;28;20026;-50
2022/09/27 00:36:13;;;;;;;4.70;2.85;;;13.40;99.90;;;;;;5032742;28;20120;-51
2022/09/27 00:39:00;;;;;;;3.67;2.80;;;13.40;99.90;;;;;;5028542;28;20085;-52
2022/09/27 00:41:46;;;;;;;6.55;3.40;;;13.50;99.90;;;;;;5011896;28;20107;-51
2022/09/27 00:44:32;;;;;;;4.53;2.70;;;13.50;99.90;;;;;;5020519;28;20083;-56
2022/09/27 00:47:59;;;;;;;5.88;3.10;;;13.50;99.90;;;;;;5032946;28;20115;-52
2022/09/27 00:50:48;;;;;;;3.15;2.78;;;13.50;99.90;;;;;;4981126;28;20037;-52
2022/09/27 00:53:50;;;;;;;4.15;2.92;;;13.60;99.90;;;;;;5012446;28;20030;-52
2022/09/27 00:56:37;;;;;;;3.58;3.10;;;13.50;99.90;;;;;;5011889;28;20037;-51
2022/09/27 00:59:27;;;;;;;3.92;3.00;;;13.50;99.90;;;;;;5032979;28;20052;-54
2022/09/27 01:02:14;;;;;;;3.25;2.70;;;13.50;99.90;;;;;;5031425;28;20395;-51
2022/09/27 01:05:00;;;;;;;3.45;2.88;;;13.40;99.90;;;;;;5030672;28;20029;-47
2022/09/27 01:07:46;;;;;;;4.03;2.63;;;13.50;99.90;;;;;;5028064;28;20029;-46
2022/09/27 01:10:39;;;;;;;5.53;2.80;;;13.40;99.90;;;;;;5030810;28;20030;-51
2022/09/27 01:13:39;;;;;;;4.65;2.70;;;13.50;99.90;;;;;;5022400;28;20180;-51
2022/09/27 01:16:59;;;;;;;6.38;3.17;;;13.40;99.90;;;;;;5031642;28;20033;-47
2022/09/27 01:20:19;;;;;;;3.67;2.67;;;13.40;99.90;;;;;;5030333;28;20101;-50
2022/09/27 01:23:23;;;;;;;4.38;2.70;;;13.40;99.90;;;;;;5026254;28;20029;-48
2022/09/27 01:26:24;;;;;;;3.40;3.00;;;13.40;99.90;;;;;;5031086;28;20029;-47
2022/09/27 01:29:23;;;;;;;5.45;2.80;;;13.40;99.90;;;;;;5029442;28;20028;-51
2022/09/27 01:32:51;;;;;;;8.23;3.17;;;13.40;99.80;;;;;;5026481;28;20022;-48
2022/09/27 01:35:54;;;;;;;5.65;3.08;;;13.40;99.80;;;;;;5031563;28;20025;-51
2022/09/27 01:38:46;;;;;;;3.65;2.40;;;13.40;99.80;;;;;;5027257;28;20104;-49
2022/09/27 01:41:45;;;;;;;4.25;2.63;;;13.40;99.90;;;;;;5039892;28;20056;-49
2022/09/27 01:44:46;;;;;;;3.95;2.60;;;13.40;99.70;;;;;;5012779;28;20026;-49
2022/09/27 01:47:48;;;;;;;4.15;2.65;;;13.40;99.80;;;;;;5013219;28;20474;-46
2022/09/27 01:50:49;;;;;;;5.15;2.75;;;13.40;99.80;;;;;;5013857;28;20034;-46
2022/09/27 01:53:39;;;;;;;3.63;2.40;;;13.30;99.90;;;;;;5031509;28;20034;-49
2022/09/27 01:56:40;;;;;;;4.20;2.70;;;13.30;99.90;;;;;;5022691;28;20379;-50
2022/09/27 01:59:44;;;;;;;3.20;2.20;;;13.30;99.90;;;;;;5012451;28;20105;-47
2022/09/27 02:02:34;;;;;;;3.55;2.63;;;13.20;99.90;;;;;;5030274;28;20071;-49
2022/09/27 02:05:25;;;;;;;3.47;2.70;;;13.20;99.90;;;;;;5030496;28;20021;-50
2022/09/27 02:08:35;;;;;;;3.22;2.47;;;13.20;99.90;;;;;;5031010;28;20112;-50
2022/09/27 02:11:21;;;;;;;3.17;2.25;;;13.20;99.90;;;;;;5030732;28;20111;-49
2022/09/27 02:14:16;;;;;;;3.22;2.47;;;13.20;99.90;;;;;;5031181;28;20025;-50
2022/09/27 02:17:15;;;;;;;3.20;2.42;;;13.20;99.90;;;;;;5021749;28;20517;-49
2022/09/27 02:20:34;;;;;;;2.95;2.30;;;13.20;99.90;;;;;;5022385;28;20121;-48
2022/09/27 02:23:39;;;;;;;2.50;2.30;;;13.20;99.90;;;;;;5027864;28;20339;-46
2022/09/27 02:26:34;;;;;;;2.10;1.90;;;13.20;99.90;;;;;;5031488;28;20053;-46
2022/09/27 02:29:31;;;;;;;2.50;2.30;;;13.20;99.90;;;;;;5017404;28;20038;-47
2022/09/27 02:32:17;;;;;;;3.42;2.30;;;13.10;99.90;;;;;;5011392;28;20030;-49
2022/09/27 02:35:25;;;;;;;3.08;2.17;;;13.20;99.90;;;;;;5030081;28;20044;-47
2022/09/27 02:38:11;;;;;;;5.13;2.35;;;13.10;99.90;;;;;;5016653;28;20057;-50
2022/09/27 02:40:57;;;;;;;2.53;1.92;;;13.10;99.90;;;;;;5030572;28;20036;-53
2022/09/27 02:43:47;;;;;;;3.17;2.00;;;13.10;99.90;;;;;;5024813;28;20663;-46
2022/09/27 02:46:42;;;;;;;2.75;2.10;;;13.10;99.90;;;;;;5014441;28;20045;-49
2022/09/27 02:49:53;;;;;;;2.42;2.03;;;13.10;99.90;;;;;;5030858;28;20065;-47
2022/09/27 02:52:54;;;;;;;2.50;2.30;;;13.00;99.90;;;;;;5010978;28;20033;-49
2022/09/27 02:56:02;;;;;;;3.30;2.17;;;13.00;99.90;;;;;;5011294;28;20033;-47
2022/09/27 02:59:18;;;;;;;2.95;2.25;;;13.00;99.90;;;;;;5010838;28;20548;-50
2022/09/27 03:02:26;;;;;;;2.53;2.13;;;13.00;99.90;;;;;;5010389;28;20425;-48
2022/09/27 03:05:17;;;;;;;2.58;2.22;;;13.00;99.90;;;;;;5011012;28;20026;-52
2022/09/27 03:08:04;;;;;;;3.50;2.20;;;13.00;99.90;;;;;;5011881;28;20409;-52
2022/09/27 03:10:50;;;;;;;4.50;2.47;;;13.00;99.90;;;;;;5011644;28;20072;-52
2022/09/27 03:13:37;;;;;;;3.47;2.60;;;13.00;99.90;;;;;;5011618;28;20057;-49
2022/09/27 03:16:23;;;;;;;2.72;2.30;;;13.00;99.90;;;;;;5017970;28;20098;-51
2022/09/27 03:19:09;;;;;;;3.58;2.42;;;13.00;99.90;;;;;;5030810;28;20026;-48
2022/09/27 03:21:55;;;;;;;3.85;2.55;;;13.00;99.90;;;;;;5018085;28;20030;-49
2022/09/27 03:24:42;;;;;;;2.88;2.42;;;13.00;99.90;;;;;;5010821;28;20026;-49
2022/09/27 03:27:28;;;;;;;3.33;2.58;;;13.00;99.90;;;;;;5025709;28;20520;-51
2022/09/27 03:30:14;;;;;;;2.40;2.20;;;13.00;99.90;;;;;;5030141;28;20141;-48
2022/09/27 03:33:00;;;;;;;3.20;2.38;;;13.00;99.90;;;;;;5011413;28;20042;-48
2022/09/27 03:35:46;;;;;;;4.68;2.40;;;12.90;99.90;;;;;;5008994;28;20584;-51
2022/09/27 03:38:32;;;;;;;2.90;2.50;;;12.80;99.90;;;;;;5010832;28;20065;-50
2022/09/27 03:41:18;;;;;;;3.65;2.15;;;12.90;99.90;;;;;;5013648;28;20029;-49
2022/09/27 03:44:04;;;;;;;2.45;1.95;;;12.80;99.90;;;;;;5015196;28;20173;-47
2022/09/27 03:46:50;;;;;;;2.28;1.90;;;12.90;99.90;;;;;;5029884;28;20033;-50
2022/09/27 03:49:36;;;;;;;3.03;2.28;;;12.90;99.90;;;;;;5021108;28;20053;-50
2022/09/27 03:52:22;;;;;;;2.78;2.22;;;12.80;99.90;;;;;;4995974;28;20030;-53
2022/09/27 03:55:09;;;;;;;2.80;2.10;;;12.80;99.90;;;;;;5022742;28;20669;-48
2022/09/27 03:57:55;;;;;;;2.42;2.13;;;12.80;99.90;;;;;;5033494;28;20033;-52
2022/09/27 04:00:42;;;;;;;2.70;2.40;;;12.80;99.90;;;;;;5017349;28;20032;-49
2022/09/27 04:03:28;;;;;;;2.70;2.10;;;12.70;99.90;;;;;;5013536;28;20494;-48
2022/09/27 04:06:14;;;;;;;2.60;2.20;;;12.70;99.90;;;;;;5031836;28;20052;-50
2022/09/27 04:09:01;;;;;;;4.05;2.50;;;12.80;99.90;;;;;;5031004;28;20394;-48
2022/09/27 04:11:47;;;;;;;4.03;2.47;;;12.70;99.90;;;;;;5012903;28;20029;-52
2022/09/27 04:14:33;;;;;;;2.97;2.40;;;12.70;99.90;;;;;;5014584;28;20035;-48
2022/09/27 04:17:19;;;;;;;3.15;2.67;;;12.70;99.90;;;;;;5013425;28;20034;-50
2022/09/27 04:20:06;;;;;;;4.28;2.60;;;12.70;99.90;;;;;;5022376;28;20028;-51
2022/09/27 04:22:52;;;;;;;4.35;2.60;;;12.70;99.90;;;;;;5032623;28;20448;-53
2022/09/27 04:25:41;;;;;;;6.13;2.83;;;12.70;99.90;;;;;;5033096;28;20030;-50
2022/09/27 04:28:28;;;;;;;3.83;2.80;;;12.70;99.90;;;;;;5034132;28;20461;-48
2022/09/27 04:31:14;;;;;;;3.63;3.15;;;12.70;99.90;;;;;;5015145;28;20042;-49
2022/09/27 04:34:00;;;;;;;5.35;2.60;;;12.70;99.90;;;;;;5013502;28;20030;-53
2022/09/27 04:36:46;;;;;;;3.58;2.60;;;12.60;99.90;;;;;;5013403;28;20033;-51
2022/09/27 04:39:32;;;;;;;3.30;2.58;;;12.60;99.90;;;;;;5014169;28;20025;-49
2022/09/27 04:42:18;;;;;;;3.35;2.50;;;12.60;99.90;;;;;;5012273;28;20052;-48
2022/09/27 04:45:04;;;;;;;2.90;2.38;;;12.70;99.90;;;;;;5032683;28;20477;-49
2022/09/27 04:47:51;;;;;;;3.45;2.40;;;12.60;99.90;;;;;;5027031;28;20117;-51
2022/09/27 04:50:38;;;;;;;2.70;2.45;;;12.60;99.90;;;;;;5012028;28;20038;-49
2022/09/27 04:53:24;;;;;;;3.55;2.40;;;12.60;99.90;;;;;;5022054;28;20041;-52
2022/09/27 04:56:12;;;;;;;3.75;2.50;;;12.60;99.90;;;;;;5033210;28;20071;-52
2022/09/27 04:58:58;;;;;;;3.72;2.20;;;12.50;99.90;;;;;;5020030;28;20549;-52
2022/09/27 05:01:44;;;;;;;3.78;2.50;;;12.60;99.90;;;;;;5017321;28;20109;-50
2022/09/27 05:04:30;;;;;;;7.32;4.75;;;12.60;99.90;;;;;;5013863;28;20168;-49
2022/09/27 05:07:16;;;;;;;5.53;2.90;;;12.60;99.90;;;;;;5030547;28;20038;-51
2022/09/27 05:10:03;;;;;;;6.63;2.72;;;12.50;99.90;;;;;;5027434;28;20025;-51
2022/09/27 05:12:49;;;;;;;7.55;3.10;;;12.60;99.90;;;;;;5012199;28;20037;-51
2022/09/27 05:15:35;;;;;;;4.60;2.80;;;12.70;99.90;;;;;;5001290;28;20080;-51
2022/09/27 05:18:21;;;;;;;4.25;2.58;;;12.60;99.90;;;;;;5039068;28;20061;-49
2022/09/27 05:21:07;;;;;;;9.10;5.15;;;12.60;99.90;;;;;;5035371;28;20040;-52
2022/09/27 05:23:53;;;;;;;6.00;3.53;;;12.60;99.90;;;;;;5049630;28;20473;-49
2022/09/27 05:26:39;;;;;;;3.33;2.85;;;12.60;99.90;;;;;;5032161;28;20063;-51
2022/09/27 05:29:25;;;;;;;3.38;2.90;;;12.60;99.90;;;;;;5029132;28;20071;-50
2022/09/27 05:32:11;;;;;;;3.92;2.78;;;12.60;99.90;;;;;;5029437;28;20544;-51
2022/09/27 05:34:57;;;;;;;9.63;6.10;;;12.60;99.90;;;;;;5025377;28;20021;-51
2022/09/27 05:37:43;;;;;;;16.75;8.77;;;12.60;99.90;;;;;;5023702;28;20064;-48
2022/09/27 05:40:29;;;;;;;3.97;3.40;;;12.60;99.90;;;;;;5022250;28;20409;-53
2022/09/27 05:43:15;;;;;;;8.45;3.20;;;12.70;99.90;;;;;;5021818;28;20069;-48
2022/09/27 05:46:02;;;;;;;6.70;3.25;;;12.60;99.90;;;;;;5022807;28;20029;-49
2022/09/27 05:48:47;;;;;;;5.75;3.05;;;12.60;99.90;;;;;;5023165;28;20113;-51
2022/09/27 05:51:33;;;;;;;5.38;3.75;;;12.50;99.90;;;;;;5031691;28;20075;-48
2022/09/27 05:54:19;;;;;;;6.32;3.72;;;12.50;99.90;;;;;;5030575;28;20117;-47
2022/09/27 05:57:07;;;;;;;4.75;4.28;;;12.60;99.90;;;;;;5026114;28;20237;-48
2022/09/27 05:59:53;;;;;;;6.70;5.50;;;12.50;99.90;;;;;;5029732;28;20033;-49
2022/09/27 06:02:39;;;;;;;4.43;3.30;;;12.60;99.90;;;;;;5010311;28;20026;-49
2022/09/27 06:05:27;;;;;;;3.40;2.40;;;12.60;99.90;;;;;;5017518;28;20045;-51
2022/09/27 06:08:13;;;;;;;3.22;2.70;;;12.60;99.90;;;;;;5030536;28;20040;-49
2022/09/27 06:11:05;;;;;;;4.20;2.58;;;12.60;99.90;;;;;;5010753;28;20512;-47
2022/09/27 06:13:51;;;;;;;4.03;2.90;;;12.60;99.90;;;;;;5023357;28;20075;-49
2022/09/27 06:16:37;;;;;;;3.60;2.20;;;12.70;99.90;;;;;;5028589;28;20390;-52
2022/09/27 06:19:23;;;;;;;4.50;2.22;;;12.70;99.90;;;;;;5029977;28;20029;-48
2022/09/27 06:22:09;;;;;;;6.40;2.85;;;12.70;99.90;;;;;;5020035;28;20097;-47
2022/09/27 06:24:55;;;;;;;3.88;2.10;;;12.70;99.90;;;;;;5022167;28;20069;-48
2022/09/27 06:27:41;;;;;;;2.53;1.77;;;12.60;99.90;;;;;;5030657;28;20057;-51
2022/09/27 06:30:27;;;;;;;3.78;1.90;;;12.60;99.90;;;;;;5024226;28;20049;-50
2022/09/27 06:33:16;;;;;;;2.15;1.75;;;12.60;99.90;;;;;;5010477;28;20516;-52
2022/09/27 06:36:06;;;;;;;2.33;1.80;;;12.60;99.90;;;;;;5010297;28;20406;-52
2022/09/27 06:38:52;;;;;;;2.92;1.90;;;12.70;99.90;;;;;;5014996;28;20112;-47
2022/09/27 06:41:38;;;;;;;2.38;1.90;;;12.60;99.90;;;;;;5029870;28;20068;-49
2022/09/27 06:44:25;;;;;;;3.03;1.88;;;12.60;99.90;;;;;;5018868;28;20058;-52
2022/09/27 06:47:10;;;;;;;2.22;1.70;;;12.70;99.90;;;;;;5011049;28;20034;-48
2022/09/27 06:49:56;;;;;;;7.00;2.00;;;12.60;99.90;;;;;;5025580;28;20045;-47
2022/09/27 06:52:47;;;;;;;2.65;1.95;;;12.70;99.90;;;;;;5029919;28;20029;-48
2022/09/27 06:55:33;;;;;;;2.25;1.90;;;12.70;99.90;;;;;;5010879;28;20040;-48
2022/09/27 07:01:30;;;;;;;2.67;2.03;;;12.80;99.90;;;;;;5018256;28;20085;-50
2022/09/27 07:04:16;;;;;;;3.15;2.25;;;12.80;99.90;;;;;;5050020;28;20030;-52
2022/09/27 07:07:03;;;;;;;2.20;1.98;;;12.80;99.90;;;;;;5018045;28;20053;-49
2022/09/27 07:09:49;;;;;;;5.05;2.45;;;12.90;99.90;;;;;;5018352;28;20030;-50
2022/09/27 07:12:38;;;;;;;4.18;3.10;;;12.90;99.90;;;;;;5026499;28;20038;-49
2022/09/27 07:15:24;;;;;;;2.60;2.40;;;12.90;99.90;;;;;;5013245;28;20524;-48
2022/09/27 07:18:10;;;;;;;4.03;2.40;;;12.90;99.90;;;;;;5010502;28;20033;-50
2022/09/27 07:20:59;;;;;;;3.25;2.22;;;12.80;99.90;;;;;;5010465;28;20034;-51
2022/09/27 07:23:45;;;;;;;2.83;2.05;;;12.80;99.90;;;;;;5000911;28;20493;-50
2022/09/27 07:26:31;;;;;;;2.55;2.35;;;12.70;99.90;;;;;;4999184;28;20058;-54
2022/09/27 07:29:17;;;;;;;2.40;2.20;;;12.70;99.90;;;;;;5015918;28;20624;-51
2022/09/27 07:32:03;;;;;;;3.42;2.22;;;12.80;99.90;;;;;;5018573;28;20037;-48
2022/09/27 07:34:49;;;;;;;2.45;2.05;;;12.80;99.90;;;;;;5025927;28;20022;-49
2022/09/27 07:37:36;;;;;;;2.20;1.92;;;12.70;99.90;;;;;;5034242;28;20048;-51
2022/09/27 07:40:22;;;;;;;2.20;2.00;;;12.70;99.90;;;;;;5030065;28;20029;-48
2022/09/27 07:43:09;;;;;;;3.03;2.25;;;12.60;99.90;;;;;;5019312;28;20018;-51
2022/09/27 07:45:55;;;;;;;2.08;1.90;;;12.60;99.90;;;;;;5033789;28;20033;-51
2022/09/27 07:48:41;;;;;;;3.08;1.85;;;12.60;99.90;;;;;;5014049;28;20069;-50
2022/09/27 07:51:28;;;;;;;2.75;1.80;;;12.60;99.90;;;;;;5013114;28;20025;-50
2022/09/27 07:54:14;;;;;;;2.80;2.10;;;12.60;99.90;;;;;;5014068;28;20030;-48
2022/09/27 07:57:02;;;;;;;2.10;1.90;;;12.60;99.90;;;;;;5014283;28;20037;-48
2022/09/27 07:59:47;;;;;;;2.00;1.90;;;12.60;99.90;;;;;;5013072;28;20488;-50
2022/09/27 08:02:34;;;;;;;2.78;1.80;;;12.60;99.90;;;;;;5013581;28;20053;-47
2022/09/27 08:05:19;;;;;;;2.25;1.73;;;12.60;99.90;;;;;;5013934;28;20030;-50
2022/09/27 08:08:05;;;;;;;2.78;1.70;;;12.50;99.90;;;;;;5013609;28;20057;-51
2022/09/27 08:10:51;;;;;;;2.13;1.85;;;12.50;99.90;;;;;;5012785;28;20529;-54
2022/09/27 08:13:38;;;;;;;8.02;2.20;;;12.50;99.90;;;;;;5013297;28;20445;-50
2022/09/27 08:16:24;;;;;;;2.80;1.98;;;12.40;99.90;;;;;;4999695;28;20425;-52
2022/09/27 08:19:10;;;;;;;2.45;1.95;;;12.50;99.90;;;;;;5013494;28;20025;-51
2022/09/27 08:21:56;;;;;;;2.95;1.95;;;12.60;99.90;;;;;;5013037;28;20018;-48
2022/09/27 08:24:42;;;;;;;2.83;1.90;;;12.50;99.90;;;;;;5013593;28;20105;-50
2022/09/27 08:27:28;;;;;;;4.25;2.50;;;12.40;99.90;;;;;;5012565;28;20410;-49
2022/09/27 08:30:14;;;;;;;3.05;1.90;;;12.40;99.90;;;;;;5013466;28;20037;-49
2022/09/27 08:33:02;;;;;;;3.72;1.90;;;12.40;99.90;;;;;;5015503;28;20406;-52
2022/09/27 08:35:48;;;;;;;5.63;1.98;;;12.60;99.90;;;;;;5032717;28;20021;-50
2022/09/27 08:38:34;;;;;;;1.98;1.80;;;12.80;99.90;;;;;;5031506;28;20036;-51
2022/09/27 08:41:41;;;;;;;3.58;1.70;;;12.70;99.90;;;;;;5031850;28;20394;-50
2022/09/27 08:45:07;;;;;;;3.97;1.50;;;12.60;99.90;;;;;;5032721;28;20022;-48
2022/09/27 08:48:04;;;;;;;6.05;2.03;;;12.60;99.90;;;;;;5011028;28;20037;-48
2022/09/27 08:50:50;;;;;;;3.67;1.70;;;12.40;99.90;;;;;;5032226;28;20371;-47
2022/09/27 08:53:45;;;;;;;2.42;1.60;;;12.40;99.90;;;;;;5018828;28;20029;-50
2022/09/27 08:56:32;;;;;;;2.38;1.80;;;12.50;99.90;;;;;;5033385;28;20079;-51
2022/09/27 08:59:22;;;;;;;2.28;1.98;;;12.40;99.90;;;;;;5032709;28;20061;-53
2022/09/27 09:02:26;;;;;;;3.13;1.70;;;12.30;99.90;;;;;;5032100;28;20397;-48
2022/09/27 09:05:29;;;;;;;3.60;1.58;;;12.20;99.90;;;;;;5033438;28;20071;-49
2022/09/27 09:08:34;;;;;;;2.28;1.60;;;12.00;99.90;;;;;;5015218;28;20536;-48
2022/09/27 09:15:11;;;;;;;2.47;1.38;;;11.50;99.90;;;;;;5012379;28;20554;-47
2022/09/27 09:18:13;;;;;;;2.38;1.10;;;11.30;99.90;;;;;;5012115;28;20516;-48
2022/09/27 09:21:29;;;;;;;3.00;1.25;;;11.20;99.90;;;;;;5011934;28;20532;-49
2022/09/27 09:24:37;;;;;;;1.20;1.17;;;11.20;99.90;;;;;;5012726;28;20018;-48
2022/09/27 09:27:23;;;;;;;1.88;1.50;;;11.50;99.90;;;;;;5012554;28;20422;-47
2022/09/27 09:30:34;;;;;;;1.73;1.60;;;11.60;99.90;;;;;;5024877;28;20036;-46
2022/09/27 09:33:37;;;;;;;3.20;1.70;;;11.80;99.90;;;;;;5032381;28;20034;-47
2022/09/27 09:36:37;;;;;;;2.35;1.80;;;11.70;99.90;;;;;;5026465;28;20040;-47
2022/09/27 09:39:42;;;;;;;2.67;2.15;;;11.80;99.90;;;;;;5012546;28;20064;-47
2022/09/27 09:42:44;;;;;;;3.70;2.65;;;11.70;99.90;;;;;;5022159;28;20064;-50
2022/09/27 09:45:37;;;;;;;3.70;1.95;;;11.70;99.90;;;;;;5032998;28;20028;-48
2022/09/27 09:48:32;;;;;;;2.53;1.70;;;11.90;99.90;;;;;;5065822;22;20022;-73
2022/09/27 09:51:34;;;;;;;3.88;2.33;;;12.00;99.90;;;;;;4966682;28;20043;-73
2022/09/27 09:54:37;;;;;;;3.20;1.50;;;12.00;99.90;;;;;;4971335;28;20582;-73
2022/09/27 09:57:42;;;;;;;4.57;1.80;;;12.00;99.90;;;;;;4958854;28;20436;-74
2022/09/27 10:00:28;;;;;;;1.95;1.65;;;11.80;99.90;;;;;;4950513;29;20522;-73
2022/09/27 10:03:14;;;;;;;2.97;1.80;;;11.90;99.90;;;;;;4952440;28;20732;-73
2022/09/27 10:06:00;;;;;;;4.47;1.77;;;11.90;99.90;;;;;;4953097;29;20031;-73
2022/09/27 10:08:46;;;;;;;3.58;1.75;;;11.80;99.90;;;;;;4951424;29;20041;-73
2022/09/27 10:11:39;;;;;;;3.33;1.83;;;11.90;99.90;;;;;;4953026;29;20118;-73
2022/09/27 10:14:26;;;;;;;3.10;2.08;;;12.00;99.90;;;;;;4952821;29;20032;-73
2022/09/27 10:17:17;;;;;;;1.75;1.65;;;12.10;99.90;;;;;;4953308;28;20028;-73
2022/09/27 10:20:05;;;;;;;1.88;1.70;;;12.10;99.90;;;;;;4953277;29;20027;-74
2022/09/27 10:23:02;;;;;;;3.05;1.65;;;12.10;99.90;;;;;;4953090;29;20606;-74
2022/09/27 10:25:55;;;;;;;3.70;1.80;;;12.10;99.90;;;;;;4935373;28;20054;-74
2022/09/27 10:28:45;;;;;;;2.00;1.67;;;12.20;99.90;;;;;;4953157;28;20117;-74
2022/09/27 10:31:40;;;;;;;3.13;2.08;;;12.20;99.90;;;;;;4953584;28;20046;-74
2022/09/27 10:34:30;;;;;;;4.93;2.20;;;12.20;99.90;;;;;;4953072;29;20085;-73
2022/09/27 10:37:20;;;;;;;3.42;1.92;;;12.30;99.90;;;;;;4939260;28;20070;-73
2022/09/27 10:40:26;;;;;;;4.88;1.95;;;12.20;99.90;;;;;;4934769;28;20106;-73
2022/09/27 10:43:28;;;;;;;4.00;2.03;;;12.20;99.90;;;;;;4932960;29;20183;-74
2022/09/27 10:46:19;;;;;;;3.30;2.10;;;12.30;99.90;;;;;;4939218;28;20519;-74
2022/09/27 10:49:33;;;;;;;4.03;2.22;;;12.30;99.90;;;;;;4938738;29;20492;-74
2022/09/27 10:52:23;;;;;;;2.92;2.08;;;12.50;99.90;;;;;;4939950;28;20114;-74
2022/09/27 10:55:23;;;;;;;3.42;2.13;;;12.50;99.90;;;;;;4954588;28;20038;-74
2022/09/27 10:58:28;;;;;;;5.00;2.25;;;12.30;99.90;;;;;;4955060;29;20415;-74
2022/09/27 11:01:14;;;;;;;2.72;2.22;;;12.50;99.90;;;;;;4953522;28;20118;-73
2022/09/27 11:04:00;;;;;;;4.15;2.45;;;12.70;99.90;;;;;;4954082;29;20239;-74
2022/09/27 11:06:46;;;;;;;2.45;1.85;;;12.80;99.90;;;;;;4959169;28;20035;-74
2022/09/27 11:09:43;;;;;;;8.73;2.90;;;12.80;99.90;;;;;;4963868;28;20035;-74
2022/09/27 11:12:30;;;;;;;3.40;2.05;;;12.80;99.90;;;;;;4966808;28;20058;-73
2022/09/27 11:15:19;;;;;;;3.60;1.70;;;13.00;99.90;;;;;;4964536;28;20031;-73
2022/09/27 11:18:29;;;;;;;2.28;1.88;;;12.70;99.90;;;;;;4962732;29;20043;-74
2022/09/27 11:21:22;;;;;;;1.83;1.70;;;12.60;99.90;;;;;;4962155;28;20024;-74
2022/09/27 11:24:23;;;;;;;2.15;1.70;;;12.40;99.90;;;;;;4962292;28;20019;-74
2022/09/27 11:27:24;;;;;;;5.47;2.20;;;12.40;99.90;;;;;;4944094;29;20605;-73
2022/09/27 11:30:18;;;;;;;2.95;2.08;;;12.70;99.90;;;;;;4938110;29;20032;-74
2022/09/27 11:33:22;;;;;;;3.90;2.10;;;12.70;99.90;;;;;;4954138;29;20036;-74
2022/09/27 11:36:19;;;;;;;5.43;2.33;;;12.80;99.90;;;;;;4957080;29;20114;-74
2022/09/27 11:39:16;;;;;;;2.22;2.03;;;12.90;99.90;;;;;;4943794;28;20023;-74
2022/09/27 11:42:32;;;;;;;3.70;1.95;;;12.90;99.90;;;;;;4942396;28;20019;-73
2022/09/27 11:45:22;;;;;;;;;;;12.60;99.90;;;;;;4944319;28;20031;-75
2022/09/27 11:48:29;;;;;;;3.80;2.00;;;12.50;99.90;;;;;;4955757;28;20445;-74
2022/09/27 11:51:40;;;;;;;2.60;2.03;;;12.20;99.90;;;;;;4942524;29;20035;-74
2022/09/27 11:55:00;;;;;;;3.47;2.10;;;12.30;99.90;;;;;;4956318;29;20027;-74
2022/09/27 11:57:54;;;;;;;2.80;2.00;;;12.40;99.90;;;;;;4956297;29;20093;-73
2022/09/27 12:01:15;;;;;;;2.80;2.50;;;12.60;99.90;;;;;;4952281;29;20016;-73
2022/09/27 12:04:09;;;;;;;3.88;1.67;;;12.90;99.90;;;;;;4944432;28;20031;-74
2022/09/27 12:07:18;;;;;;;2.13;1.92;;;13.00;99.90;;;;;;4957856;29;20102;-74
2022/09/27 12:10:12;;;;;;;2.42;2.10;;;13.20;99.90;;;;;;4958596;29;20117;-73
2022/09/27 12:12:59;;;;;;;3.47;1.88;;;13.30;99.90;;;;;;4959408;28;20023;-75
2022/09/27 12:15:47;;;;;;;4.75;1.80;;;13.30;99.90;;;;;;4946082;28;20412;-74
2022/09/27 12:18:38;;;;;;;3.15;1.83;;;13.40;99.90;;;;;;4966907;28;20020;-75
2022/09/27 12:21:26;;;;;;;3.17;2.00;;;13.50;99.90;;;;;;4961994;28;20020;-73
2022/09/27 12:24:20;;;;;;;4.38;1.80;;;13.70;99.90;;;;;;4947861;28;20035;-73
2022/09/27 12:27:13;;;;;;;2.72;2.33;;;13.50;99.90;;;;;;4959873;29;20063;-74
2022/09/27 12:30:01;;;;;;;3.03;2.00;;;13.70;99.90;;;;;;4946898;29;20042;-73
2022/09/27 12:33:05;;;;;;;5.25;2.08;;;13.60;99.90;;;;;;4960544;28;20043;-75
2022/09/27 12:35:56;;;;;;;3.63;1.92;;;13.70;99.90;;;;;;4960167;29;20091;-74
2022/09/27 12:38:50;;;;;;;1.77;1.65;;;13.90;99.90;;;;;;4938077;29;20032;-74
2022/09/27 12:41:41;;;;;;;2.47;2.00;;;14.30;98.70;;;;;;4925409;29;20076;-74
2022/09/27 12:44:37;;;;;;;2.78;1.95;;;14.40;98.60;;;;;;4950355;28;20254;-75
2022/09/27 12:47:35;;;;;;;3.80;2.28;;;14.50;98.10;;;;;;4953834;29;20031;-73
2022/09/27 12:50:51;;;;;;;4.18;2.00;;;14.80;96.90;;;;;;4955860;29;20507;-73
2022/09/27 12:53:52;;;;;;;4.97;2.42;;;14.70;96.30;;;;;;4955716;28;20027;-73
2022/09/27 12:57:03;;;;;;;3.78;2.20;;;14.30;96.40;;;;;;4955647;28;20031;-74
2022/09/27 12:59:51;;;;;;;3.42;2.33;;;14.30;96.30;;;;;;4941639;28;20054;-73
2022/09/27 13:02:49;;;;;;;4.13;3.13;;;14.50;95.90;;;;;;4953101;29;20019;-74
2022/09/27 13:06:17;;;;;;;2.90;2.17;;;14.60;94.40;;;;;;4954917;29;20120;-74
2022/09/27 13:09:09;;;;;;;5.07;2.70;;;14.50;94.40;;;;;;4949497;29;20047;-74
2022/09/27 13:12:12;;;;;;;3.58;2.33;;;14.20;95.00;;;;;;4955276;29;20087;-73
2022/09/27 13:15:15;;;;;;;5.20;2.53;;;14.10;95.50;;;;;;4954740;29;20561;-76
2022/09/27 13:18:05;;;;;;;5.03;2.70;;;13.90;95.60;;;;;;4938195;28;20059;-74
2022/09/27 13:20:51;;;;;;;2.85;2.40;;;13.90;96.00;;;;;;4928926;29;20106;-75
2022/09/27 13:23:40;;;;;;;3.83;2.70;;;13.90;95.90;;;;;;4936507;29;20039;-72
2022/09/27 13:26:44;;;;;;;4.63;2.55;;;14.10;95.90;;;;;;4951781;29;20058;-74
2022/09/27 13:29:32;;;;;;;3.53;2.80;;;14.50;95.10;;;;;;4954027;28;20031;-75
2022/09/27 13:32:25;;;;;;;3.53;2.60;;;14.60;94.60;;;;;;4973385;23;20103;-49
2022/09/27 13:35:23;;;;;;;6.55;2.65;;;14.80;94.70;;;;;;5015798;28;20061;-51
2022/09/27 13:38:23;;;;;;;3.92;2.63;;;15.10;94.80;;;;;;4999684;28;20064;-52
2022/09/27 13:41:16;;;;;;;6.43;3.40;;;15.20;93.70;;;;;;5012741;28;20041;-50
2022/09/27 13:44:16;;;;;;;4.05;3.25;;;14.70;92.60;;;;;;5013099;28;20028;-48
2022/09/27 13:47:23;;;;;;;4.60;2.97;;;14.40;93.10;;;;;;5011319;28;20381;-53
2022/09/27 13:50:55;;;;;;;6.22;3.42;;;14.30;93.60;;;;;;5072751;28;20420;-48
2022/09/27 13:53:45;;;;;;;6.60;3.30;;;14.30;94.30;;;;;;5012880;28;20037;-59
2022/09/27 13:56:45;;;;;;;4.30;3.08;;;14.00;95.40;;;;;;5046825;28;20057;-47
2022/09/27 13:59:53;;;;;;;3.65;3.08;;;14.00;95.30;;;;;;5057202;28;20047;-51
2022/09/27 14:02:51;;;;;;;4.72;2.90;;;13.90;95.10;;;;;;5065878;28;20021;-49
2022/09/27 14:05:40;;;;;;;6.53;2.88;;;13.70;95.40;;;;;;5046659;28;20033;-50
2022/09/27 14:08:33;;;;;;;4.20;2.40;;;13.70;95.30;;;;;;5048386;28;20026;-54
2022/09/27 14:11:42;;;;;;;3.15;2.15;;;13.60;94.50;;;;;;5046461;28;20030;-50
2022/09/27 14:14:31;;;;;;;5.82;2.50;;;13.60;93.60;;;;;;5044645;28;20029;-47
2022/09/27 14:17:17;;;;;;;2.25;2.05;;;13.70;93.40;;;;;;5056596;28;20032;-53
2022/09/27 14:20:06;;;;;;;2.53;1.90;;;13.50;92.80;;;;;;5066870;28;20025;-52
2022/09/27 14:22:53;;;;;;;5.97;2.22;;;13.50;93.10;;;;;;5042885;28;20692;-52
2022/09/27 14:25:46;;;;;;;3.47;1.95;;;13.60;92.60;;;;;;5046129;28;20042;-50
2022/09/27 14:28:40;;;;;;;4.30;2.20;;;13.50;92.30;;;;;;5036174;28;20061;-50
2022/09/27 14:31:26;;;;;;;4.32;2.42;;;13.70;92.10;;;;;;5044834;28;20109;-48
2022/09/27 14:34:12;;;;;;;3.00;2.03;;;13.60;92.10;;;;;;5044518;28;20110;-50
2022/09/27 14:40:07;;;;;;;4.38;2.33;;;13.70;92.10;;;;;;5046082;28;20112;-49
2022/09/27 14:42:58;;;;;;;4.32;2.10;;;14.10;91.80;;;;;;5044261;28;20025;-51
2022/09/27 14:45:50;;;;;;;5.22;2.30;;;14.30;91.70;;;;;;5048597;28;20041;-48
2022/09/27 14:48:38;;;;;;;4.07;2.10;;;14.50;91.80;;;;;;5047281;28;20025;-49
2022/09/27 14:51:30;;;;;;;3.63;2.17;;;14.50;91.80;;;;;;5050838;28;20029;-48
2022/09/27 14:54:25;;;;;;;3.33;2.28;;;14.40;92.30;;;;;;5067619;28;20032;-46
2022/09/27 14:57:15;;;;;;;5.10;2.05;;;14.30;92.00;;;;;;5065632;28;20025;-45
2022/09/27 15:00:24;;;;;;;3.63;2.10;;;14.10;92.70;;;;;;5060384;28;20037;-53
2022/09/27 15:03:28;;;;;;;5.05;1.90;;;14.10;92.60;;;;;;5037118;28;20555;-47
2022/09/27 15:06:18;;;;;;;2.97;2.10;;;14.00;92.90;;;;;;5032030;28;20113;-53
2022/09/27 15:09:05;;;;;;;6.95;2.85;;;13.90;93.20;;;;;;5033808;28;20021;-50
2022/09/27 15:11:55;;;;;;;3.08;2.13;;;13.90;93.40;;;;;;5032680;28;20036;-46
2022/09/27 15:14:43;;;;;;;2.75;2.53;;;14.10;93.30;;;;;;5033780;28;20453;-63
2022/09/27 15:17:42;;;;;;;4.97;2.50;;;14.20;93.30;;;;;;5044698;28;20052;-47